createdAt,value
2022-08-12T00:03:57.902Z,127.8806
2022-08-12T00:08:59.662Z,150.02007
2022-08-12T00:14:01.246Z,209.51724
2022-08-12T00:19:02.881Z,164.78853
2022-08-12T00:24:04.518Z,153.52381
2022-08-12T00:29:06.116Z,203.91561
2022-08-12T00:34:07.713Z,140.80511
2022-08-12T00:39:09.368Z,215.36564
2022-08-12T00:44:10.998Z,168.81752
2022-08-12T00:49:12.905Z,189.41833
2022-08-12T00:54:14.525Z,233.20188
2022-08-12T00:59:16.185Z,161.66784
2022-08-12T01:04:17.854Z,144.65147
2022-08-12T01:09:19.465Z,155.68385
2022-08-12T01:14:21.086Z,155.68385
2022-08-12T01:19:23.377Z,183.68872
2022-08-12T01:24:30.877Z,152.10811
2022-08-12T01:29:33.606Z,122.55072
2022-08-12T01:34:36.303Z,164.78853
2022-08-12T01:39:38.928Z,219
2022-08-12T01:45:40.666Z,216.56637
2022-08-12T01:50:45.386Z,189.41833
2022-08-12T01:55:47.799Z,138.93671
2022-08-12T02:00:55.214Z,142.07074
2022-08-12T02:05:57.817Z,195.42857
2022-08-12T02:10:59.473Z,171.30627
2022-08-12T02:16:01.141Z,145.30719
2022-08-12T02:21:02.830Z,165.58273
2022-08-12T02:26:04.413Z,158.63415
2022-08-12T02:31:06.017Z,164
2022-08-12T02:36:07.635Z,157.88889
2022-08-12T02:41:09.318Z,132.95706
2022-08-12T02:46:14.471Z,126.78932
2022-08-12T02:51:16.740Z,153.52381
2022-08-12T02:56:18.342Z,142.70968
2022-08-12T03:01:20.072Z,126.24852
2022-08-12T03:06:21.728Z,108.26667
2022-08-12T03:11:23.401Z,89.62648
2022-08-12T03:16:25.026Z,100.34518
2022-08-12T03:21:56.468Z,115.58774
2022-08-12T03:27:11.228Z,111.3913
2022-08-12T03:32:35.485Z,86.92343
2022-08-12T03:37:38.056Z,97.61596
2022-08-12T03:42:39.854Z,111.3913
2022-08-12T03:47:41.666Z,160.14035
2022-08-12T03:52:43.305Z,109.5914
2022-08-12T03:57:46.064Z,98.77387
2022-08-12T04:02:50.468Z,99.94937
2022-08-12T04:07:58.467Z,83.05192
2022-08-12T04:13:00.299Z,100.743
2022-08-12T04:18:07.044Z,115.11111
2022-08-12T04:23:09.533Z,125.17647
2022-08-12T04:28:13.402Z,123.59184
2022-08-12T04:33:15.584Z,144
2022-08-12T04:38:17.215Z,149.33333
2022-08-12T04:44:01.504Z,98
2022-08-12T04:49:04.662Z,91.72182
2022-08-12T04:54:06.713Z,98.38596
2022-08-12T04:59:08.322Z,144
2022-08-12T05:04:09.887Z,104
2022-08-12T05:09:13.587Z,114.63712
2022-08-12T05:14:16.056Z,124.64516
2022-08-12T05:19:18.695Z,113.23077
2022-08-12T05:24:24.259Z,118.0113
2022-08-12T05:30:06.825Z,93.51456
2022-08-12T05:35:10.682Z,125.17647
2022-08-12T05:40:12.248Z,74.23256
2022-08-12T05:45:13.884Z,66.46521
2022-08-12T05:50:15.638Z,152.10811
2022-08-12T05:55:17.319Z,169.64103
2022-08-12T06:00:18.971Z,172.14815
2022-08-12T06:05:20.871Z,145.96721
2022-08-12T06:10:31.749Z,97.61596
2022-08-12T06:15:34.692Z,93.51456
2022-08-12T06:20:36.323Z,89.62648
2022-08-12T06:25:38.414Z,127.33333
2022-08-12T06:30:40.245Z,222.73303
2022-08-12T06:35:49.316Z,157.88889
2022-08-12T06:40:51.662Z,226.56881
2022-08-12T06:45:53.299Z,132.95706
2022-08-12T06:50:54.920Z,158.63415
2022-08-12T06:55:57.909Z,137.71069
2022-08-12T07:01:00.408Z,99.16373
2022-08-12T07:06:02.136Z,195.42857
2022-08-12T07:11:03.754Z,167.18841
2022-08-12T07:16:05.365Z,109.5914
2022-08-12T07:21:06.970Z,97.61596
2022-08-12T07:26:08.542Z,85.93548
2022-08-12T07:31:10.184Z,76.18884
2022-08-12T07:36:11.992Z,92.79227
2022-08-12T07:41:15.632Z,149.33333
2022-08-12T07:46:17.738Z,231.85047
2022-08-12T07:51:25.602Z,224
2022-08-12T07:56:27.556Z,200.66667
2022-08-12T08:01:29.206Z,243.02913
2022-08-12T08:06:30.872Z,230.51163
2022-08-12T08:11:32.446Z,125.71091
2022-08-12T08:16:34.171Z,126.24852
2022-08-12T08:21:35.779Z,143.35275
2022-08-12T08:26:37.617Z,113.23077
2022-08-12T08:31:40.613Z,110.48649
2022-08-12T08:36:44.715Z,99.94937
2022-08-12T08:42:16.798Z,80.88889
2022-08-12T08:47:21.764Z,89.62648
2022-08-12T08:52:39.335Z,167.18841
2022-08-12T08:57:44.557Z,221.47748
2022-08-12T09:02:49.424Z,157.88889
2022-08-12T09:08:12.177Z,231.85047
2022-08-12T09:34:29.456Z,198.54545
2022-08-12T09:40:05.289Z,209.51724
2022-08-12T09:45:17.830Z,164.78853
2022-08-12T09:50:20.909Z,238.73684
2022-08-12T09:56:06.504Z,205.01695
2022-08-12T10:02:45.194Z,172.99628
2022-08-12T10:07:51.789Z,183.68872
2022-08-12T10:13:06.804Z,186.51969
2022-08-12T10:18:14.752Z,145.30719
2022-08-12T10:23:16.917Z,160.90141
2022-08-12T10:28:24.945Z,164.78853
2022-08-12T10:33:31.019Z,181.83784
2022-08-12T10:38:41.391Z,123.59184
2022-08-12T10:43:54.960Z,188.44444
2022-08-12T10:49:06.768Z,168
2022-08-12T10:55:06.812Z,219
2022-08-12T11:00:35.146Z,140.80511
2022-08-12T11:07:03.453Z,109.14745
2022-08-12T11:13:45.903Z,104.83551
2022-08-12T11:18:48.631Z,110.48649
2022-08-12T11:23:57.436Z,110.93767
2022-08-12T11:29:05.464Z,125.17647
2022-08-12T11:34:51.968Z,108.70588
2022-08-12T11:45:10.449Z,89.28302
2022-08-12T11:50:19.236Z,106.96296
2022-08-12T11:55:23.180Z,128.98498
2022-08-12T12:05:56.670Z,141.4359
2022-08-12T12:11:02.375Z,123.59184
2022-08-12T12:16:11.106Z,132.95706
2022-08-12T12:21:12.728Z,125.17647
2022-08-12T12:26:35.244Z,114.16575
2022-08-12T12:32:11.831Z,101.54476
2022-08-12T12:37:16.462Z,109.14745
2022-08-12T12:43:05.079Z,123.59184
2022-08-12T12:48:07.972Z,101.54476
2022-08-12T12:53:09.753Z,75.62393
2022-08-12T12:59:07.404Z,80.28319
2022-08-12T13:04:57.389Z,73.41176
2022-08-12T13:10:02.067Z,73.41176
2022-08-12T13:15:04.168Z,67.69478
2022-08-12T13:20:05.802Z,83.68254
2022-08-12T13:25:09.631Z,69.71429
2022-08-12T13:30:13.271Z,62.91892
2022-08-12T13:35:19.804Z,64.07797
2022-08-12T13:40:34.712Z,63.84436
2022-08-12T13:45:36.871Z,64.3125
2022-08-12T13:50:38.619Z,65.25984
2022-08-12T13:55:41.168Z,68.44444
2022-08-12T14:00:45.703Z,64.78431
2022-08-12T14:05:47.676Z,75.34328
2022-08-12T14:10:52.152Z,76.47312
2022-08-12T14:15:53.753Z,91.01671
2022-08-12T14:20:55.570Z,96.09877
2022-08-12T14:25:57.263Z,96.09877
2022-08-12T14:31:01.041Z,105.25654
2022-08-12T14:36:03.258Z,110.93767
2022-08-12T14:41:05.076Z,121.52161
2022-08-12T14:46:09.276Z,120.5043
2022-08-12T14:52:43.247Z,121.01149
2022-08-12T14:58:59.997Z,126.24852
2022-08-12T15:04:22.541Z,127.33333
2022-08-12T15:09:29.179Z,126.78932
2022-08-12T15:14:31.113Z,134.71207
2022-08-12T15:20:31.790Z,132.95706
2022-08-12T15:25:40.166Z,147.97351
2022-08-12T15:30:49.121Z,140.17834
2022-08-12T15:35:53.966Z,144
2022-08-12T15:40:55.941Z,149.33333
2022-08-12T15:46:00.899Z,149.33333
2022-08-12T15:51:02.839Z,153.52381
2022-08-12T15:56:04.741Z,145.30719
2022-08-12T16:01:06.861Z,145.30719
2022-08-12T16:06:19.016Z,151.40741
2022-08-12T16:11:32.722Z,159.38462
2022-08-12T16:16:48.525Z,162.43972
2022-08-12T16:21:58.290Z,158.63415
2022-08-12T16:27:00.704Z,171.30627
2022-08-12T16:32:02.415Z,181.83784
2022-08-12T16:37:04.056Z,187.47826
2022-08-12T16:42:09.043Z,207.24786
2022-08-12T16:47:11.299Z,202.82353
2022-08-12T16:52:16.602Z,207.24786
2022-08-12T16:57:34.659Z,216.56637
2022-08-12T17:02:37.849Z,238.73684
2022-08-12T17:07:43.132Z,235.94313
2022-08-12T17:12:45.004Z,261.52577
2022-08-12T17:17:46.939Z,269.92593
2022-08-12T17:22:49.417Z,268.21053
2022-08-12T17:27:57.509Z,286.22222
2022-08-12T17:33:00.627Z,302.13953
2022-08-12T17:38:04.056Z,306.35294
2022-08-12T17:43:52.141Z,315.08434
2022-08-12T17:49:00.482Z,310.66667
2022-08-12T17:54:12.446Z,346.61438
2022-08-12T17:59:14.472Z,312.86228
2022-08-12T18:05:04.823Z,344
2022-08-12T18:10:11.543Z,363.04762
2022-08-12T18:15:26.751Z,351.94702
2022-08-12T18:21:06.290Z,365.91781
2022-08-12T18:26:15.053Z,410.66667
2022-08-12T18:31:18.815Z,368.82759
2022-08-12T18:36:22.389Z,374.76923
2022-08-12T18:41:24.750Z,357.42282
2022-08-12T18:46:29.858Z,349.26316
2022-08-12T18:51:34.239Z,324.24691
2022-08-12T18:56:47.689Z,312.86228
2022-08-12T19:02:20.892Z,331.42138
2022-08-12T19:07:23.935Z,333.87342
2022-08-12T19:12:30.291Z,300.06936
2022-08-12T19:17:56.168Z,245.96078
2022-08-12T19:23:02.103Z,203.91561
2022-08-12T19:28:08.715Z,193.39271
2022-08-12T19:33:10.309Z,194.4065
2022-08-12T19:38:12.279Z,199.60166
2022-08-12T19:43:20.713Z,210.66667
2022-08-12T19:48:22.589Z,237.33333
2022-08-12T19:53:24.485Z,208.37768
2022-08-12T19:58:27.010Z,221.47748
2022-08-12T20:03:39.492Z,199.60166
2022-08-12T20:08:47.745Z,168
2022-08-12T20:14:00.634Z,177.33333
2022-08-12T20:19:03.366Z,183.68872
2022-08-12T20:24:10.664Z,227.87097
2022-08-12T20:29:12.349Z,226.56881
2022-08-12T20:34:13.985Z,207.24786
2022-08-12T20:39:52.145Z,184.625
2022-08-12T20:44:55.689Z,216.56637
2022-08-12T20:50:00.130Z,319.60976
2022-08-12T20:55:01.869Z,284.33149
2022-08-12T21:00:03.474Z,263.17098
2022-08-12T21:05:16.324Z,261.52577
2022-08-12T21:10:21.438Z,278.78261
2022-08-12T21:15:30.761Z,278.78261
2022-08-12T21:20:56.930Z,278.78261
2022-08-12T21:26:01.417Z,268.21053
2022-08-12T21:32:35.440Z,192.3871
2022-08-12T21:37:40.194Z,238.73684
2022-08-12T21:42:42.261Z,268.21053
2022-08-12T21:47:43.995Z,296
2022-08-12T21:52:49.187Z,349.26316
2022-08-12T21:57:54.660Z,341.41935
2022-08-12T22:03:04.225Z,290.06742
2022-08-12T22:08:05.927Z,338.87179
2022-08-12T22:14:02.354Z,300.06936
2022-08-12T22:19:09.853Z,298.02299
2022-08-12T22:24:25.757Z,225.27854
2022-08-12T22:29:28.855Z,200.66667
2022-08-12T22:34:33.168Z,245.96078
2022-08-12T22:39:35.212Z,266.51309
2022-08-12T22:44:52.904Z,171.30627
2022-08-12T22:49:59.889Z,310.66667
2022-08-12T22:55:05.362Z,308.49704
2022-08-12T23:00:23.623Z,165.58273
2022-08-12T23:05:57.799Z,180.92308
2022-08-12T23:11:12.121Z,140.80511
2022-08-12T23:16:28.202Z,169.64103
2022-08-12T23:22:03.413Z,186.51969
2022-08-12T23:27:08.462Z,166.38267
2022-08-12T23:32:10.301Z,151.40741
2022-08-12T23:37:11.909Z,144.65147
2022-08-12T23:42:16.897Z,145.30719
2022-08-12T23:47:19.944Z,140.17834
2022-08-12T23:52:21.560Z,209.51724
2022-08-12T23:57:24.757Z,130.10272
